This is the latest recevied weather packets stored in our database for station/object KA1ROH. If no packets are shown the sender has not sent any weather packets the latest 10 day(s).
| Time | Temp. | Humidity | Pressure | Rain* | Wind** | Luminosity | Snow |
|---|---|---|---|---|---|---|---|
| 1778114373 | 7.78° C | 93% | 1009.1 hPa | 0 mm | - | - | - |
| 1778112571 | 7.78° C | 93% | 1008.8 hPa | 0.25 mm | - | - | - |
| 1778106534 | 7.78° C | 93% | 1008.1 hPa | 0 mm | - | - | - |
| 1778102898 | 7.22° C | 94% | 1007.8 hPa | 0 mm | - | - | - |
| 1778102267 | 7.22° C | 94% | 1007.8 hPa | 0 mm | - | - | - |
| 1778090222 | 6.67° C | 95% | 1008.5 hPa | 0.51 mm | - | - | - |
| 1778076884 | 7.22° C | 94% | 1009.1 hPa | 0.51 mm | - | - | - |
| 1778072016 | 7.22° C | 91% | 1009.5 hPa | 1.02 mm | - | - | - |
| 1778066610 | 8.33° C | 91% | 1009.8 hPa | 0.51 mm | - | - | - |
| 1778056813 | 10° C | 85% | 1009.1 hPa | 0.25 mm | - | - | - |
| 1778053777 | 11.11° C | 85% | 1009.1 hPa | 0 mm | - | - | - |
| 1778050774 | 11.11° C | 89% | 1008.5 hPa | 0 mm | - | - | - |
| 1778049572 | 11.67° C | 91% | 1008.8 hPa | 0 mm | - | - | - |
| 1778045968 | 11.67° C | 92% | 1008.8 hPa | 0 mm | - | - | - |
| 1778044104 | 11.67° C | 92% | 1008.8 hPa | 0.51 mm | - | - | - |
| 1778043504 | 11.67° C | 92% | 1008.8 hPa | 0.51 mm | - | - | - |
| 1778041701 | 12.22° C | 89% | 1008.5 hPa | 0.51 mm | - | - | - |
| 1778034368 | 14.44° C | 69% | 1006.8 hPa | 0 mm | - | - | - |
| 1778031303 | 15.56° C | 76% | 1006.8 hPa | 0 mm | - | - | - |
| 1778027668 | 17.78° C | 79% | 1004.7 hPa | 0 mm | - | - | - |
| 1778017995 | 20° C | 65% | 1003.7 hPa | 0 mm | - | - | - |
| 1778014929 | 18.33° C | 67% | 1002.7 hPa | 0 mm | - | - | - |
| 1778010723 | 15.56° C | 89% | 1002.7 hPa | 0.25 mm | - | - | - |
| 1778004592 | 22.78° C | 53% | 1000.3 hPa | 0 mm | - | - | - |
| 1778002760 | 24.44° C | 48% | 1000.3 hPa | 0 mm | - | - | - |
* Rain latest hour (hover to see other rain measurements)
** Current wind speed in m/s (hover to see current wind gust speed)